createdAt,value
2023-01-02T00:01:45.111Z,12.35
2023-01-02T00:04:13.527Z,12.37
2023-01-02T00:06:41.914Z,12.38
2023-01-02T00:09:10.484Z,12.36
2023-01-02T00:11:38.929Z,12.35
2023-01-02T00:14:07.538Z,12.35
2023-01-02T00:16:36.067Z,12.39
2023-01-02T00:19:07.077Z,12.40
2023-01-02T00:21:35.632Z,12.39
2023-01-02T00:24:04.211Z,12.44
2023-01-02T00:26:32.759Z,12.44
2023-01-02T00:29:02.478Z,12.43
2023-01-02T00:31:31.202Z,12.48
2023-01-02T00:34:00.304Z,12.44
2023-01-02T00:36:30.365Z,12.46
2023-01-02T00:38:59.197Z,12.47
2023-01-02T00:41:28.117Z,12.43
2023-01-02T00:43:56.662Z,12.40
2023-01-02T00:46:25.247Z,12.40
2023-01-02T00:48:53.850Z,12.43
2023-01-02T00:51:22.309Z,12.41
2023-01-02T00:53:52.360Z,12.40
2023-01-02T00:56:20.987Z,12.41
2023-01-02T00:58:49.471Z,12.40
2023-01-02T01:01:18.313Z,12.44
2023-01-02T01:03:46.951Z,12.40
2023-01-02T01:06:15.896Z,12.43
2023-01-02T01:08:44.946Z,12.38
2023-01-02T01:11:17.519Z,12.42
2023-01-02T01:13:46.515Z,12.43
2023-01-02T01:16:16.936Z,12.39
2023-01-02T01:18:45.962Z,12.38
2023-01-02T01:21:16.848Z,12.40
2023-01-02T01:23:46.203Z,12.29
2023-01-02T01:26:16.854Z,12.40
2023-01-02T01:28:45.379Z,12.36
2023-01-02T01:31:15.603Z,12.39
2023-01-02T01:33:45.054Z,12.25
2023-01-02T01:36:15.993Z,12.36
2023-01-02T01:38:45.475Z,12.35
2023-01-02T01:41:17.523Z,12.26
2023-01-02T01:43:50.318Z,12.24
2023-01-02T01:46:25.204Z,12.12
2023-01-02T01:49:00.393Z,12.05
2023-01-02T01:51:31.203Z,11.99
2023-01-02T01:54:06.701Z,11.92
2023-01-02T01:56:39.739Z,11.89
2023-01-02T01:59:10.797Z,11.79
2023-01-02T02:01:40.651Z,11.77
2023-01-02T02:04:10.718Z,11.74
2023-01-02T02:06:39.727Z,11.78
2023-01-02T02:09:13.905Z,11.74
2023-01-02T02:11:44.284Z,11.68
2023-01-02T02:14:12.948Z,11.75
2023-01-02T02:16:47.892Z,11.75
2023-01-02T02:20:00.474Z,11.73
2023-01-02T02:23:03.571Z,11.73
2023-01-02T02:26:24.301Z,11.71
2023-01-02T02:29:25.472Z,11.63
2023-01-02T02:32:03.492Z,11.58
2023-01-02T02:34:39.827Z,11.51
2023-01-02T02:37:16.069Z,11.49
2023-01-02T02:39:56.114Z,11.55
2023-01-02T02:42:37.751Z,11.59
2023-01-02T02:45:12.053Z,11.64
2023-01-02T02:47:50.641Z,11.68
2023-01-02T02:50:24.975Z,11.70
2023-01-02T02:53:00.110Z,11.70
2023-01-02T02:55:32.609Z,11.63
2023-01-02T02:58:02.834Z,11.61
2023-01-02T03:00:31.384Z,11.55
2023-01-02T03:03:01.514Z,11.55
2023-01-02T03:05:36.900Z,11.46
2023-01-02T03:08:12.949Z,11.45
2023-01-02T03:10:48.178Z,11.36
2023-01-02T03:13:24.177Z,11.34
2023-01-02T03:16:01.938Z,11.27
2023-01-02T03:18:37.425Z,11.23
2023-01-02T03:21:10.668Z,11.14
2023-01-02T03:23:44.738Z,10.98
2023-01-02T03:26:16.984Z,10.97
2023-01-02T03:28:50.449Z,10.80
2023-01-02T03:31:21.615Z,10.87
2023-01-02T03:33:54.633Z,10.90
2023-01-02T03:36:26.461Z,10.96
2023-01-02T03:39:02.117Z,10.98
2023-01-02T03:41:34.994Z,10.99
2023-01-02T03:44:05.849Z,10.97
2023-01-02T03:46:39.964Z,10.99
2023-01-02T03:49:17.469Z,11.02
2023-01-02T03:51:46.194Z,11.02
2023-01-02T03:54:17.129Z,11.03
2023-01-02T03:56:54.463Z,11.05
2023-01-02T03:59:36.217Z,11.12
2023-01-02T04:02:11.977Z,11.12
2023-01-02T04:04:50.889Z,11.14
2023-01-02T04:07:26.489Z,11.14
2023-01-02T04:09:56.033Z,11.19
2023-01-02T04:12:26.464Z,11.22
2023-01-02T04:14:59.475Z,11.22
2023-01-02T04:17:30.249Z,11.32
2023-01-02T04:20:03.596Z,11.33
2023-01-02T04:22:37.918Z,11.33
2023-01-02T04:25:13.782Z,11.35
2023-01-02T04:27:48.109Z,11.35
2023-01-02T04:30:16.988Z,11.35
2023-01-02T04:32:46.961Z,11.28
2023-01-02T04:35:21.384Z,11.29
2023-01-02T04:37:50.322Z,11.29
2023-01-02T04:40:24.204Z,11.26
2023-01-02T04:42:53.423Z,11.22
2023-01-02T04:45:22.177Z,11.22
2023-01-02T04:47:51.149Z,11.20
2023-01-02T04:50:21.285Z,11.18
2023-01-02T04:52:50.279Z,11.16
2023-01-02T04:55:18.821Z,11.13
2023-01-02T04:57:47.538Z,11.11
2023-01-02T05:00:16.968Z,11.11
2023-01-02T05:02:45.499Z,11.07
2023-01-02T05:05:13.947Z,11.05
2023-01-02T05:07:43.995Z,11.07
2023-01-02T05:10:12.777Z,11.09
2023-01-02T05:12:41.722Z,11.10
2023-01-02T05:15:11.879Z,11.12
2023-01-02T05:17:41.729Z,11.13
2023-01-02T05:20:12.106Z,11.15
2023-01-02T05:22:58.582Z,11.16
2023-01-02T05:25:29.341Z,11.18
2023-01-02T05:27:57.770Z,11.16
2023-01-02T05:30:26.287Z,11.18
2023-01-02T05:32:55.322Z,11.21
2023-01-02T05:35:28.469Z,11.19
2023-01-02T05:37:59.050Z,11.25
2023-01-02T05:40:28.931Z,11.28
2023-01-02T05:42:57.349Z,11.29
2023-01-02T05:45:25.770Z,11.31
2023-01-02T05:47:54.190Z,11.34
2023-01-02T05:50:22.797Z,11.35
2023-01-02T05:52:51.462Z,11.31
2023-01-02T05:55:20.129Z,11.33
2023-01-02T05:57:49.971Z,11.35
2023-01-02T06:00:18.946Z,11.35
2023-01-02T06:02:48.667Z,11.24
2023-01-02T06:05:17.656Z,11.17
2023-01-02T06:07:46.160Z,11.12
2023-01-02T06:10:14.602Z,11.14
2023-01-02T06:12:42.980Z,11.10
2023-01-02T06:15:13.401Z,11.11
2023-01-02T06:17:41.855Z,11.02
2023-01-02T06:20:11.516Z,11.02
2023-01-02T06:22:40.062Z,11.07
2023-01-02T06:25:09.768Z,11.06
2023-01-02T06:27:38.303Z,11.12
2023-01-02T06:30:07.783Z,11.16
2023-01-02T06:32:37.665Z,11.21
2023-01-02T06:35:07.109Z,11.37
2023-01-02T06:37:35.495Z,11.50
2023-01-02T06:40:03.940Z,11.57
2023-01-02T06:42:33.237Z,11.65
2023-01-02T06:45:01.970Z,11.74
2023-01-02T06:47:30.612Z,11.82
2023-01-02T06:50:00.583Z,11.86
2023-01-02T06:52:29.723Z,11.83
2023-01-02T06:54:58.175Z,11.81
2023-01-02T06:57:26.693Z,11.77
2023-01-02T06:59:55.075Z,11.68
2023-01-02T07:02:23.788Z,11.62
2023-01-02T07:04:52.241Z,11.42
2023-01-02T07:07:22.234Z,11.38
2023-01-02T07:09:50.976Z,11.34
2023-01-02T07:12:19.583Z,11.26
2023-01-02T07:14:48.108Z,11.29
2023-01-02T07:17:16.803Z,11.29
2023-01-02T07:19:51.463Z,11.31
2023-01-02T07:22:23.586Z,11.29
2023-01-02T07:24:52.122Z,11.31
2023-01-02T07:27:20.579Z,11.28
2023-01-02T07:29:49.110Z,11.25
2023-01-02T07:32:22.459Z,11.30
2023-01-02T07:34:54.102Z,11.27
2023-01-02T07:37:24.018Z,11.28
2023-01-02T07:39:52.406Z,11.27
2023-01-02T07:42:20.888Z,11.27
2023-01-02T07:44:49.728Z,11.23
2023-01-02T07:47:18.211Z,11.20
2023-01-02T07:49:46.767Z,11.21
2023-01-02T07:52:17.971Z,11.25
2023-01-02T07:54:47.936Z,11.22
2023-01-02T07:57:16.407Z,11.25
2023-01-02T07:59:47.267Z,11.24
2023-01-02T08:02:15.761Z,11.21
2023-01-02T08:04:44.221Z,11.18
2023-01-02T08:07:12.642Z,11.20
2023-01-02T08:09:41.116Z,11.23
2023-01-02T08:12:11.251Z,11.13
2023-01-02T08:14:39.754Z,11.17
2023-01-02T08:17:08.314Z,11.13
2023-01-02T08:19:36.789Z,11.19
2023-01-02T08:22:05.267Z,11.22
2023-01-02T08:24:33.752Z,11.14
2023-01-02T08:27:02.664Z,11.18
2023-01-02T08:29:33.193Z,11.22
2023-01-02T08:32:01.775Z,11.28
2023-01-02T08:34:30.669Z,11.35
2023-01-02T08:36:59.169Z,11.39
2023-01-02T08:39:27.992Z,11.49
2023-01-02T08:41:58.282Z,11.57
2023-01-02T08:44:26.979Z,11.60
2023-01-02T08:46:56.888Z,11.74
2023-01-02T08:49:25.374Z,11.90
2023-01-02T08:51:53.857Z,12.01
2023-01-02T08:54:22.462Z,11.98
2023-01-02T08:56:51.032Z,12.19
2023-01-02T08:59:19.634Z,12.28
2023-01-02T09:01:48.365Z,12.38
2023-01-02T09:04:18.442Z,12.50
2023-01-02T09:06:47.439Z,12.60
2023-01-02T09:09:17.575Z,12.68
2023-01-02T09:11:50.814Z,12.77
2023-01-02T09:14:21.203Z,12.85
2023-01-02T09:16:50.503Z,12.89
2023-01-02T09:19:21.464Z,12.97
2023-01-02T09:21:50.535Z,13.00
2023-01-02T09:24:19.330Z,13.08
2023-01-02T09:26:48.025Z,13.14
2023-01-02T09:29:16.815Z,13.18
2023-01-02T09:31:45.327Z,13.27
2023-01-02T09:34:14.710Z,13.34
2023-01-02T09:36:44.617Z,13.46
2023-01-02T09:39:13.210Z,13.54
2023-01-02T09:41:44.269Z,13.63
2023-01-02T09:44:17.652Z,13.72
2023-01-02T09:46:51.472Z,13.82
2023-01-02T09:49:23.743Z,13.86
2023-01-02T09:51:54.171Z,13.92
2023-01-02T09:54:26.500Z,13.93
2023-01-02T09:57:08.940Z,13.95
2023-01-02T09:59:43.216Z,14.04
2023-01-02T10:02:26.366Z,14.14
2023-01-02T10:05:11.466Z,14.20
2023-01-02T10:07:49.147Z,14.27
2023-01-02T10:10:26.393Z,14.25
2023-01-02T10:13:04.070Z,14.25
2023-01-02T10:15:34.069Z,14.25
2023-01-02T10:18:13.125Z,14.27
2023-01-02T10:20:45.256Z,14.21
2023-01-02T10:23:19.950Z,14.26
2023-01-02T10:25:54.730Z,14.32
2023-01-02T10:28:29.687Z,14.25
2023-01-02T10:31:06.910Z,14.30
2023-01-02T10:33:44.127Z,14.77
2023-01-02T10:36:23.749Z,15.05
2023-01-02T10:38:54.713Z,14.87
2023-01-02T10:41:23.261Z,14.74
2023-01-02T10:43:55.951Z,14.65
2023-01-02T10:46:24.489Z,14.56
2023-01-02T10:48:53.053Z,14.55
2023-01-02T10:51:21.877Z,14.48
2023-01-02T10:54:03.145Z,14.49
2023-01-02T10:56:33.912Z,14.45
2023-01-02T10:59:03.512Z,14.49
2023-01-02T11:01:32.455Z,14.49
2023-01-02T11:04:12.526Z,14.69
2023-01-02T11:06:52.301Z,14.75
2023-01-02T11:09:23.868Z,14.70
2023-01-02T11:11:55.212Z,14.67
2023-01-02T11:14:28.423Z,14.65
2023-01-02T11:17:05.231Z,14.60
2023-01-02T11:19:41.533Z,14.61
2023-01-02T11:22:10.755Z,14.59
2023-01-02T11:24:59.866Z,14.61
2023-01-02T11:27:33.008Z,14.62
2023-01-02T11:30:02.157Z,14.64
2023-01-02T11:32:38.776Z,14.72
2023-01-02T11:35:28.183Z,14.73
2023-01-02T11:37:56.743Z,14.79
2023-01-02T11:40:29.707Z,14.75
2023-01-02T11:43:21.287Z,14.75
2023-01-02T11:45:50.066Z,14.74
2023-01-02T11:48:23.378Z,14.76
2023-01-02T11:50:53.048Z,14.72
2023-01-02T11:53:28.663Z,14.76
2023-01-02T11:56:04.013Z,14.79
2023-01-02T11:58:38.758Z,14.80
2023-01-02T12:01:13.237Z,14.83
2023-01-02T12:03:42.175Z,14.82
2023-01-02T12:06:18.598Z,14.80
2023-01-02T12:09:00.987Z,14.78
2023-01-02T12:11:46.017Z,14.79
2023-01-02T12:14:18.279Z,14.79
2023-01-02T12:16:54.069Z,14.73
2023-01-02T12:19:44.424Z,14.72
2023-01-02T12:22:29.484Z,14.70
2023-01-02T12:25:09.554Z,14.62
2023-01-02T12:27:51.418Z,14.63
2023-01-02T12:30:22.004Z,14.66
2023-01-02T12:33:22.848Z,14.66
2023-01-02T12:36:03.294Z,14.64
2023-01-02T12:38:47.849Z,14.53
2023-01-02T12:41:27.169Z,14.56
2023-01-02T12:44:18.853Z,14.49
2023-01-02T12:47:06.819Z,14.52
2023-01-02T12:49:51.061Z,14.47
2023-01-02T12:52:32.597Z,14.50
2023-01-02T12:55:18.177Z,14.54
2023-01-02T12:57:55.839Z,14.60
2023-01-02T13:00:51.103Z,14.62
2023-01-02T13:03:45.101Z,14.57
2023-01-02T13:06:45.889Z,14.50
2023-01-02T13:09:14.605Z,14.47
2023-01-02T13:11:53.541Z,14.49
2023-01-02T13:14:25.360Z,14.49
2023-01-02T13:17:06.504Z,14.48
2023-01-02T13:19:41.719Z,14.50
2023-01-02T13:22:20.222Z,14.51
2023-01-02T13:24:49.810Z,14.51
2023-01-02T13:27:18.977Z,14.47
2023-01-02T13:29:47.928Z,14.51
2023-01-02T13:32:29.271Z,14.40
2023-01-02T13:35:00.557Z,14.49
2023-01-02T13:37:31.079Z,14.52
2023-01-02T13:40:02.559Z,14.54
2023-01-02T13:42:52.677Z,14.52
2023-01-02T13:45:25.572Z,14.51
2023-01-02T13:47:57.850Z,14.49
2023-01-02T13:50:30.360Z,14.44
2023-01-02T13:53:07.217Z,14.41
2023-01-02T13:55:37.386Z,14.49
2023-01-02T13:58:37.898Z,14.50
2023-01-02T14:01:33.347Z,14.44
2023-01-02T14:04:32.162Z,14.40
2023-01-02T14:07:40.267Z,14.36
2023-01-02T14:10:42.007Z,14.35
2023-01-02T14:13:22.590Z,14.38
2023-01-02T14:16:23.652Z,14.35
2023-01-02T14:19:18.401Z,14.33
2023-01-02T14:21:51.901Z,14.37
2023-01-02T14:24:31.847Z,14.36
2023-01-02T14:27:05.907Z,14.31
2023-01-02T14:29:50.617Z,14.32
2023-01-02T14:32:25.669Z,14.30
2023-01-02T14:34:58.747Z,14.28
2023-01-02T14:37:38.881Z,14.25
2023-01-02T14:40:19.972Z,14.20
2023-01-02T14:43:11.792Z,14.11
2023-01-02T14:45:45.818Z,14.12
2023-01-02T14:48:18.529Z,14.02
2023-01-02T14:50:49.992Z,14.06
2023-01-02T14:53:23.942Z,14.01
2023-01-02T14:55:56.028Z,13.90
2023-01-02T14:58:36.287Z,13.97
2023-01-02T15:01:06.315Z,13.94
2023-01-02T15:03:44.178Z,13.91
2023-01-02T15:06:19.798Z,13.86
2023-01-02T15:08:52.951Z,13.84
2023-01-02T15:11:43.003Z,13.85
2023-01-02T15:14:19.025Z,13.81
2023-01-02T15:16:54.839Z,13.75
2023-01-02T15:19:26.801Z,13.75
2023-01-02T15:21:56.200Z,13.66
2023-01-02T15:24:30.361Z,13.57
2023-01-02T15:27:14.599Z,13.53
2023-01-02T15:29:47.632Z,13.56
2023-01-02T15:32:21.011Z,13.51
2023-01-02T15:34:51.810Z,13.48
2023-01-02T15:37:23.335Z,13.43
2023-01-02T15:39:56.529Z,13.38
2023-01-02T15:42:45.465Z,13.35
2023-01-02T15:45:17.235Z,13.34
2023-01-02T15:47:48.290Z,13.31
2023-01-02T15:50:20.716Z,13.26
2023-01-02T15:52:51.362Z,13.20
2023-01-02T15:55:22.444Z,13.23
2023-01-02T15:57:55.575Z,13.21
2023-01-02T16:00:36.818Z,13.18
2023-01-02T16:03:06.333Z,13.17
2023-01-02T16:05:48.209Z,13.15
2023-01-02T16:08:21.740Z,13.10
2023-01-02T16:11:01.550Z,13.09
2023-01-02T16:13:49.808Z,13.08
2023-01-02T16:16:20.255Z,13.07
2023-01-02T16:18:51.994Z,12.95
2023-01-02T16:21:21.323Z,12.99
2023-01-02T16:23:54.101Z,13.02
2023-01-02T16:26:31.066Z,13.02
2023-01-02T16:29:00.119Z,13.01
2023-01-02T16:31:29.755Z,12.98
2023-01-02T16:34:16.362Z,12.90
2023-01-02T16:36:45.172Z,12.87
2023-01-02T16:39:42.196Z,12.90
2023-01-02T16:42:29.106Z,12.84
2023-01-02T16:44:58.540Z,12.85
2023-01-02T16:47:33.593Z,12.86
2023-01-02T16:50:02.353Z,12.86
2023-01-02T16:52:31.213Z,12.85
2023-01-02T16:54:59.897Z,12.80
2023-01-02T16:57:30.657Z,12.84
2023-01-02T16:59:59.162Z,12.85
2023-01-02T17:02:27.977Z,12.84
2023-01-02T17:04:56.528Z,12.75
2023-01-02T17:07:25.500Z,12.73
2023-01-02T17:09:54.045Z,12.73
2023-01-02T17:12:23.636Z,12.72
2023-01-02T17:14:53.847Z,12.69
2023-01-02T17:17:22.432Z,12.66
2023-01-02T17:19:51.162Z,12.65
2023-01-02T17:22:19.723Z,12.53
2023-01-02T17:24:48.276Z,12.62
2023-01-02T17:27:16.732Z,12.59
2023-01-02T17:29:45.678Z,12.58
2023-01-02T17:32:15.751Z,12.59
2023-01-02T17:34:44.217Z,12.57
2023-01-02T17:37:12.883Z,12.55
2023-01-02T17:39:41.509Z,12.46
2023-01-02T17:42:11.513Z,12.46
2023-01-02T17:44:40.379Z,12.44
2023-01-02T17:47:57.870Z,12.40
2023-01-02T17:49:59.112Z,12.38
2023-01-02T17:52:27.511Z,12.37
2023-01-02T17:54:56.908Z,12.32
2023-01-02T17:57:26.268Z,12.30
2023-01-02T17:59:54.783Z,12.29
2023-01-02T18:02:23.473Z,12.25
2023-01-02T18:04:55.184Z,12.26
2023-01-02T18:07:25.495Z,12.24
2023-01-02T18:10:12.569Z,12.22
2023-01-02T18:12:43.459Z,12.15
2023-01-02T18:15:15.616Z,12.13
2023-01-02T18:17:44.610Z,12.10
2023-01-02T18:20:15.276Z,12.07
2023-01-02T18:22:50.176Z,12.05
2023-01-02T18:25:21.676Z,12.04
2023-01-02T18:27:50.358Z,12.00
2023-01-02T18:30:21.510Z,12.00
2023-01-02T18:32:51.669Z,11.96
2023-01-02T18:38:21.233Z,11.92
2023-01-02T18:40:49.735Z,11.89
2023-01-02T18:43:23.636Z,11.88
2023-01-02T18:45:54.754Z,11.87
2023-01-02T18:48:24.752Z,11.86
2023-01-02T18:51:01.575Z,11.86
2023-01-02T18:53:38.205Z,11.85
2023-01-02T18:56:20.501Z,11.96
2023-01-02T18:58:56.144Z,12.09
2023-01-02T19:01:28.157Z,11.99
2023-01-02T19:04:14.891Z,11.91
2023-01-02T19:06:49.841Z,11.85
2023-01-02T19:09:21.574Z,11.84
2023-01-02T19:12:12.680Z,11.80
2023-01-02T19:14:42.632Z,11.75
2023-01-02T19:17:21.368Z,11.77
2023-01-02T19:19:50.313Z,11.70
2023-01-02T19:22:21.387Z,11.67
2023-01-02T19:24:51.809Z,11.65
2023-01-02T19:27:25.818Z,11.64
2023-01-02T19:29:55.087Z,11.62
2023-01-02T19:32:28.223Z,11.68
2023-01-02T19:34:58.995Z,11.66
2023-01-02T19:37:39.381Z,11.61
2023-01-02T19:40:19.053Z,11.59
2023-01-02T19:42:49.014Z,11.60
2023-01-02T19:45:18.964Z,11.59
2023-01-02T19:47:48.360Z,11.53
2023-01-02T19:50:21.411Z,11.47
2023-01-02T19:52:50.104Z,11.46
2023-01-02T19:55:20.434Z,11.45
2023-01-02T19:57:52.085Z,11.49
2023-01-02T20:00:21.417Z,11.45
2023-01-02T20:02:51.717Z,11.46
2023-01-02T20:05:22.512Z,11.40
2023-01-02T20:07:52.280Z,11.41
2023-01-02T20:10:22.455Z,11.36
2023-01-02T20:12:51.475Z,11.39
2023-01-02T20:15:23.719Z,11.51
2023-01-02T20:17:53.631Z,11.88
2023-01-02T20:20:23.370Z,11.90
2023-01-02T20:22:52.905Z,11.74
2023-01-02T20:25:26.748Z,11.70
2023-01-02T20:27:56.574Z,11.63
2023-01-02T20:30:25.589Z,11.63
2023-01-02T20:32:54.809Z,11.61
2023-01-02T20:35:24.007Z,11.61
2023-01-02T20:37:52.554Z,11.56
2023-01-02T20:40:22.405Z,11.58
2023-01-02T20:42:50.989Z,11.59
2023-01-02T20:45:19.594Z,11.57
2023-01-02T20:47:48.111Z,11.58
2023-01-02T20:50:17.791Z,11.56
2023-01-02T20:52:46.237Z,11.56
2023-01-02T20:55:15.149Z,11.58
2023-01-02T20:57:47.190Z,11.54
2023-01-02T21:00:20.619Z,11.56
2023-01-02T21:02:51.152Z,11.57
2023-01-02T21:05:19.768Z,11.58
2023-01-02T21:07:48.285Z,11.56
2023-01-02T21:10:16.985Z,11.59
2023-01-02T21:13:02.487Z,11.61
2023-01-02T21:15:52.038Z,11.58
2023-01-02T21:18:23.493Z,11.55
2023-01-02T21:20:54.278Z,11.60
2023-01-02T21:23:24.349Z,11.57
2023-01-02T21:25:53.788Z,11.63
2023-01-02T21:28:24.624Z,11.63
2023-01-02T21:30:53.424Z,11.65
2023-01-02T21:33:24.881Z,11.65
2023-01-02T21:35:55.416Z,11.66
2023-01-02T21:38:25.202Z,11.70
2023-01-02T21:40:54.341Z,11.72
2023-01-02T21:43:24.990Z,11.74
2023-01-02T21:45:53.550Z,11.75
2023-01-02T21:48:21.957Z,11.80
2023-01-02T21:50:50.404Z,11.81
2023-01-02T21:53:18.807Z,11.83
2023-01-02T21:55:47.265Z,11.81
2023-01-02T21:58:15.773Z,11.79
2023-01-02T22:00:45.751Z,11.73
2023-01-02T22:03:14.487Z,11.80
2023-01-02T22:05:43.034Z,11.79
2023-01-02T22:08:11.632Z,11.77
2023-01-02T22:10:40.120Z,11.80
2023-01-02T22:13:08.505Z,11.80
2023-01-02T22:15:37.044Z,11.78
2023-01-02T22:18:07.186Z,11.79
2023-01-02T22:20:35.958Z,11.79
2023-01-02T22:23:05.417Z,11.78
2023-01-02T22:25:33.980Z,11.80
2023-01-02T22:28:02.490Z,11.81
2023-01-02T22:30:34.759Z,11.80
2023-01-02T22:33:04.247Z,11.83
2023-01-02T22:35:34.255Z,11.82
2023-01-02T22:38:02.813Z,11.80
2023-01-02T22:40:31.421Z,11.78
2023-01-02T22:43:02.137Z,11.75
2023-01-02T22:45:36.151Z,11.66
2023-01-02T22:48:08.864Z,11.64
2023-01-02T22:50:44.180Z,11.61
2023-01-02T22:53:20.004Z,11.62
2023-01-02T22:55:48.891Z,11.59
2023-01-02T22:58:17.826Z,11.57
2023-01-02T23:00:48.099Z,11.54
2023-01-02T23:03:18.275Z,11.54
2023-01-02T23:05:48.596Z,11.51
2023-01-02T23:08:17.323Z,11.47
2023-01-02T23:10:46.395Z,11.48
2023-01-02T23:13:14.964Z,11.48
2023-01-02T23:15:57.105Z,11.46
2023-01-02T23:18:42.879Z,11.42
2023-01-02T23:21:13.090Z,11.43
2023-01-02T23:23:41.808Z,11.41
2023-01-02T23:26:10.820Z,11.43
2023-01-02T23:29:05.950Z,11.42
2023-01-02T23:31:28.280Z,11.40
2023-01-02T23:33:57.023Z,11.41
2023-01-02T23:36:27.567Z,11.42
2023-01-02T23:38:56.709Z,11.41
2023-01-02T23:41:25.619Z,11.42
2023-01-02T23:43:54.406Z,11.40
2023-01-02T23:46:23.097Z,11.43
2023-01-02T23:48:51.568Z,11.41
2023-01-02T23:51:19.953Z,11.43
2023-01-02T23:53:50.141Z,11.45
2023-01-02T23:56:21.346Z,11.48
2023-01-02T23:58:50.799Z,11.56
